Terminal Aerodrome Forecast
Issued by NWS

Home | Current Version | Previous Version | Text Only | Print | Product List | Glossary On
Versions: 1 2 3 4 5 6 7 8 9 10 11 12 13 14 15 16 17 18 19
434
FTUS43 KUNR 171555 AAB
TAFGCC
TAF AMD
KGCC 171555Z 1716/1812 19010KT P6SM FEW200
     FM180500 22013KT P6SM SCT200=

USA.gov is the U.S. government's official web portal to all federal, state and local government web resources and services.